sensor_id;sensor_type;location;lat;lon;timestamp;P1;durP1;ratioP1;P2;durP2;ratioP2
41061;SDS011;26812;42.662;23.352;2022-11-20T00:00:28;3.90;;;3.42;;
41061;SDS011;26812;42.662;23.352;2022-11-20T00:02:53;5.65;;;4.53;;
41061;SDS011;26812;42.662;23.352;2022-11-20T00:05:19;7.85;;;5.28;;
41061;SDS011;26812;42.662;23.352;2022-11-20T00:07:45;9.35;;;5.40;;
41061;SDS011;26812;42.662;23.352;2022-11-20T00:10:11;7.90;;;5.90;;
41061;SDS011;26812;42.662;23.352;2022-11-20T00:12:36;13.50;;;6.68;;
41061;SDS011;26812;42.662;23.352;2022-11-20T00:15:02;9.07;;;5.50;;
41061;SDS011;26812;42.662;23.352;2022-11-20T00:17:28;9.32;;;6.68;;
41061;SDS011;26812;42.662;23.352;2022-11-20T00:19:54;9.20;;;6.25;;
41061;SDS011;26812;42.662;23.352;2022-11-20T00:22:19;8.18;;;5.40;;
41061;SDS011;26812;42.662;23.352;2022-11-20T00:24:45;6.03;;;4.68;;
41061;SDS011;26812;42.662;23.352;2022-11-20T00:27:10;6.00;;;4.95;;
41061;SDS011;26812;42.662;23.352;2022-11-20T00:29:36;3.65;;;3.25;;
41061;SDS011;26812;42.662;23.352;2022-11-20T00:32:01;6.18;;;4.40;;
41061;SDS011;26812;42.662;23.352;2022-11-20T00:34:26;7.22;;;4.63;;
41061;SDS011;26812;42.662;23.352;2022-11-20T00:36:52;6.90;;;4.80;;
41061;SDS011;26812;42.662;23.352;2022-11-20T00:39:18;12.23;;;4.43;;
41061;SDS011;26812;42.662;23.352;2022-11-20T00:41:43;4.38;;;2.80;;
41061;SDS011;26812;42.662;23.352;2022-11-20T00:44:08;5.93;;;3.00;;
41061;SDS011;26812;42.662;23.352;2022-11-20T00:46:34;5.25;;;3.50;;
41061;SDS011;26812;42.662;23.352;2022-11-20T00:48:59;3.75;;;3.33;;
41061;SDS011;26812;42.662;23.352;2022-11-20T00:51:25;4.65;;;3.72;;
41061;SDS011;26812;42.662;23.352;2022-11-20T00:53:52;4.22;;;2.60;;
41061;SDS011;26812;42.662;23.352;2022-11-20T00:56:20;2.80;;;2.17;;
41061;SDS011;26812;42.662;23.352;2022-11-20T00:58:46;5.93;;;3.40;;
41061;SDS011;26812;42.662;23.352;2022-11-20T01:03:41;3.83;;;2.55;;
41061;SDS011;26812;42.662;23.352;2022-11-20T01:06:10;2.63;;;2.40;;
41061;SDS011;26812;42.662;23.352;2022-11-20T01:08:40;2.38;;;1.60;;
41061;SDS011;26812;42.662;23.352;2022-11-20T01:11:07;2.78;;;1.55;;
41061;SDS011;26812;42.662;23.352;2022-11-20T01:13:37;1.42;;;1.33;;
41061;SDS011;26812;42.662;23.352;2022-11-20T01:18:32;1.30;;;1.20;;
41061;SDS011;26812;42.662;23.352;2022-11-20T01:21:05;1.88;;;1.63;;
41061;SDS011;26812;42.662;23.352;2022-11-20T01:23:33;1.50;;;1.17;;
41061;SDS011;26812;42.662;23.352;2022-11-20T01:26:00;3.58;;;1.40;;
41061;SDS011;26812;42.662;23.352;2022-11-20T01:28:28;2.28;;;1.48;;
41061;SDS011;26812;42.662;23.352;2022-11-20T01:30:54;3.55;;;1.80;;
41061;SDS011;26812;42.662;23.352;2022-11-20T01:33:19;4.43;;;1.45;;
41061;SDS011;26812;42.662;23.352;2022-11-20T01:35:45;1.80;;;1.70;;
41061;SDS011;26812;42.662;23.352;2022-11-20T01:38:10;4.50;;;1.92;;
41061;SDS011;26812;42.662;23.352;2022-11-20T01:40:36;3.17;;;1.85;;
41061;SDS011;26812;42.662;23.352;2022-11-20T01:43:09;1.65;;;1.27;;
41061;SDS011;26812;42.662;23.352;2022-11-20T01:48:30;4.90;;;1.38;;
41061;SDS011;26812;42.662;23.352;2022-11-20T01:51:19;1.92;;;1.30;;
41061;SDS011;26812;42.662;23.352;2022-11-20T01:53:50;1.38;;;1.17;;
41061;SDS011;26812;42.662;23.352;2022-11-20T01:56:19;1.40;;;1.30;;
41061;SDS011;26812;42.662;23.352;2022-11-20T01:58:49;2.38;;;1.77;;
41061;SDS011;26812;42.662;23.352;2022-11-20T02:01:18;4.68;;;1.95;;
41061;SDS011;26812;42.662;23.352;2022-11-20T02:03:45;2.13;;;1.70;;
41061;SDS011;26812;42.662;23.352;2022-11-20T02:08:50;4.35;;;2.40;;
41061;SDS011;26812;42.662;23.352;2022-11-20T02:11:17;5.05;;;2.60;;
41061;SDS011;26812;42.662;23.352;2022-11-20T02:13:42;2.72;;;2.15;;
41061;SDS011;26812;42.662;23.352;2022-11-20T02:18:45;2.03;;;1.65;;
41061;SDS011;26812;42.662;23.352;2022-11-20T02:21:13;2.03;;;1.38;;
41061;SDS011;26812;42.662;23.352;2022-11-20T02:26:26;2.97;;;1.40;;
41061;SDS011;26812;42.662;23.352;2022-11-20T02:28:55;3.05;;;1.98;;
41061;SDS011;26812;42.662;23.352;2022-11-20T02:31:21;2.17;;;1.75;;
41061;SDS011;26812;42.662;23.352;2022-11-20T02:33:46;1.05;;;0.88;;
41061;SDS011;26812;42.662;23.352;2022-11-20T02:36:14;1.05;;;0.75;;
41061;SDS011;26812;42.662;23.352;2022-11-20T02:38:40;2.90;;;0.90;;
41061;SDS011;26812;42.662;23.352;2022-11-20T02:41:06;2.53;;;0.80;;
41061;SDS011;26812;42.662;23.352;2022-11-20T02:43:32;1.48;;;0.70;;
41061;SDS011;26812;42.662;23.352;2022-11-20T02:45:57;1.55;;;1.02;;
41061;SDS011;26812;42.662;23.352;2022-11-20T02:48:23;0.82;;;0.75;;
41061;SDS011;26812;42.662;23.352;2022-11-20T02:50:48;1.48;;;0.85;;
41061;SDS011;26812;42.662;23.352;2022-11-20T02:53:13;1.05;;;0.80;;
41061;SDS011;26812;42.662;23.352;2022-11-20T02:55:39;1.02;;;0.77;;
41061;SDS011;26812;42.662;23.352;2022-11-20T02:58:04;1.02;;;0.80;;
41061;SDS011;26812;42.662;23.352;2022-11-20T03:00:30;1.75;;;0.80;;
41061;SDS011;26812;42.662;23.352;2022-11-20T03:02:55;1.13;;;0.70;;
41061;SDS011;26812;42.662;23.352;2022-11-20T03:05:21;3.42;;;1.08;;
41061;SDS011;26812;42.662;23.352;2022-11-20T03:07:46;2.22;;;0.93;;
41061;SDS011;26812;42.662;23.352;2022-11-20T03:10:11;0.95;;;0.80;;
41061;SDS011;26812;42.662;23.352;2022-11-20T03:12:37;3.45;;;1.05;;
41061;SDS011;26812;42.662;23.352;2022-11-20T03:15:02;4.30;;;1.17;;
41061;SDS011;26812;42.662;23.352;2022-11-20T03:17:28;3.05;;;0.82;;
41061;SDS011;26812;42.662;23.352;2022-11-20T03:19:54;2.55;;;0.90;;
41061;SDS011;26812;42.662;23.352;2022-11-20T03:22:20;1.27;;;0.95;;
41061;SDS011;26812;42.662;23.352;2022-11-20T03:24:45;2.17;;;0.90;;
41061;SDS011;26812;42.662;23.352;2022-11-20T03:27:11;2.42;;;1.25;;
41061;SDS011;26812;42.662;23.352;2022-11-20T03:29:36;1.73;;;0.70;;
41061;SDS011;26812;42.662;23.352;2022-11-20T03:32:01;1.00;;;0.90;;
41061;SDS011;26812;42.662;23.352;2022-11-20T03:34:27;3.28;;;0.90;;
41061;SDS011;26812;42.662;23.352;2022-11-20T03:36:52;1.33;;;0.82;;
41061;SDS011;26812;42.662;23.352;2022-11-20T03:39:18;1.05;;;0.70;;
41061;SDS011;26812;42.662;23.352;2022-11-20T03:41:43;2.47;;;1.23;;
41061;SDS011;26812;42.662;23.352;2022-11-20T03:44:10;1.83;;;0.80;;
41061;SDS011;26812;42.662;23.352;2022-11-20T03:46:37;3.78;;;1.33;;
41061;SDS011;26812;42.662;23.352;2022-11-20T03:49:03;1.45;;;0.60;;
41061;SDS011;26812;42.662;23.352;2022-11-20T03:51:29;3.25;;;0.80;;
41061;SDS011;26812;42.662;23.352;2022-11-20T03:54:00;4.07;;;0.90;;
41061;SDS011;26812;42.662;23.352;2022-11-20T03:56:30;1.20;;;0.75;;
41061;SDS011;26812;42.662;23.352;2022-11-20T03:58:57;1.80;;;1.02;;
41061;SDS011;26812;42.662;23.352;2022-11-20T04:01:27;1.98;;;0.90;;
41061;SDS011;26812;42.662;23.352;2022-11-20T04:03:55;1.00;;;0.80;;
41061;SDS011;26812;42.662;23.352;2022-11-20T04:06:25;2.25;;;1.08;;
41061;SDS011;26812;42.662;23.352;2022-11-20T04:08:56;1.67;;;1.15;;
41061;SDS011;26812;42.662;23.352;2022-11-20T04:11:23;1.45;;;0.90;;
41061;SDS011;26812;42.662;23.352;2022-11-20T04:13:52;1.33;;;0.80;;
41061;SDS011;26812;42.662;23.352;2022-11-20T04:16:24;1.95;;;0.60;;
41061;SDS011;26812;42.662;23.352;2022-11-20T04:18:59;3.45;;;0.80;;
41061;SDS011;26812;42.662;23.352;2022-11-20T04:21:26;2.33;;;0.90;;
41061;SDS011;26812;42.662;23.352;2022-11-20T04:23:53;0.60;;;0.60;;
41061;SDS011;26812;42.662;23.352;2022-11-20T04:26:19;2.55;;;0.93;;
41061;SDS011;26812;42.662;23.352;2022-11-20T04:28:46;2.50;;;0.88;;
41061;SDS011;26812;42.662;23.352;2022-11-20T04:31:12;4.22;;;0.95;;
41061;SDS011;26812;42.662;23.352;2022-11-20T04:33:39;1.02;;;0.90;;
41061;SDS011;26812;42.662;23.352;2022-11-20T04:36:06;0.70;;;0.70;;
41061;SDS011;26812;42.662;23.352;2022-11-20T04:38:35;3.35;;;0.70;;
41061;SDS011;26812;42.662;23.352;2022-11-20T04:41:01;1.85;;;0.73;;
41061;SDS011;26812;42.662;23.352;2022-11-20T04:43:28;1.52;;;0.70;;
41061;SDS011;26812;42.662;23.352;2022-11-20T04:45:54;0.77;;;0.77;;
41061;SDS011;26812;42.662;23.352;2022-11-20T04:48:21;1.30;;;0.75;;
41061;SDS011;26812;42.662;23.352;2022-11-20T04:50:48;2.65;;;0.85;;
41061;SDS011;26812;42.662;23.352;2022-11-20T04:53:26;0.50;;;0.50;;
41061;SDS011;26812;42.662;23.352;2022-11-20T04:55:51;1.05;;;0.60;;
41061;SDS011;26812;42.662;23.352;2022-11-20T04:58:24;2.17;;;0.73;;
41061;SDS011;26812;42.662;23.352;2022-11-20T05:00:50;1.75;;;0.75;;
41061;SDS011;26812;42.662;23.352;2022-11-20T05:03:16;0.65;;;0.65;;
41061;SDS011;26812;42.662;23.352;2022-11-20T05:05:42;1.52;;;0.82;;
41061;SDS011;26812;42.662;23.352;2022-11-20T05:08:07;2.75;;;0.80;;
41061;SDS011;26812;42.662;23.352;2022-11-20T05:10:33;1.17;;;1.08;;
41061;SDS011;26812;42.662;23.352;2022-11-20T05:12:58;0.63;;;0.60;;
41061;SDS011;26812;42.662;23.352;2022-11-20T05:15:23;0.98;;;0.70;;
41061;SDS011;26812;42.662;23.352;2022-11-20T05:17:52;4.13;;;0.82;;
41061;SDS011;26812;42.662;23.352;2022-11-20T05:20:18;0.70;;;0.60;;
41061;SDS011;26812;42.662;23.352;2022-11-20T05:22:44;2.35;;;0.70;;
41061;SDS011;26812;42.662;23.352;2022-11-20T05:25:10;2.90;;;0.80;;
41061;SDS011;26812;42.662;23.352;2022-11-20T05:27:36;0.80;;;0.80;;
41061;SDS011;26812;42.662;23.352;2022-11-20T05:30:02;1.65;;;1.00;;
41061;SDS011;26812;42.662;23.352;2022-11-20T05:32:29;1.80;;;0.90;;
41061;SDS011;26812;42.662;23.352;2022-11-20T05:34:54;1.00;;;0.90;;
41061;SDS011;26812;42.662;23.352;2022-11-20T05:37:20;1.23;;;0.90;;
41061;SDS011;26812;42.662;23.352;2022-11-20T05:39:45;1.05;;;0.82;;
41061;SDS011;26812;42.662;23.352;2022-11-20T05:42:10;0.88;;;0.88;;
41061;SDS011;26812;42.662;23.352;2022-11-20T05:44:54;1.10;;;1.00;;
41061;SDS011;26812;42.662;23.352;2022-11-20T05:47:20;1.02;;;0.75;;
41061;SDS011;26812;42.662;23.352;2022-11-20T05:49:45;3.38;;;1.00;;
41061;SDS011;26812;42.662;23.352;2022-11-20T05:52:11;3.20;;;1.38;;
41061;SDS011;26812;42.662;23.352;2022-11-20T05:54:36;3.53;;;1.40;;
41061;SDS011;26812;42.662;23.352;2022-11-20T05:57:01;2.53;;;1.27;;
41061;SDS011;26812;42.662;23.352;2022-11-20T05:59:27;2.58;;;0.93;;
41061;SDS011;26812;42.662;23.352;2022-11-20T06:01:52;1.38;;;1.20;;
41061;SDS011;26812;42.662;23.352;2022-11-20T06:04:18;2.80;;;1.15;;
41061;SDS011;26812;42.662;23.352;2022-11-20T06:06:43;3.65;;;1.23;;
41061;SDS011;26812;42.662;23.352;2022-11-20T06:09:09;1.65;;;0.90;;
41061;SDS011;26812;42.662;23.352;2022-11-20T06:11:34;2.38;;;1.75;;
41061;SDS011;26812;42.662;23.352;2022-11-20T06:13:59;7.78;;;3.63;;
41061;SDS011;26812;42.662;23.352;2022-11-20T06:16:25;1.98;;;1.42;;
41061;SDS011;26812;42.662;23.352;2022-11-20T06:18:50;4.60;;;1.60;;
41061;SDS011;26812;42.662;23.352;2022-11-20T06:21:19;4.00;;;1.48;;
41061;SDS011;26812;42.662;23.352;2022-11-20T06:23:46;2.88;;;1.40;;
41061;SDS011;26812;42.662;23.352;2022-11-20T06:26:14;1.20;;;1.08;;
41061;SDS011;26812;42.662;23.352;2022-11-20T06:28:43;2.20;;;1.10;;
41061;SDS011;26812;42.662;23.352;2022-11-20T06:31:10;3.70;;;1.33;;
41061;SDS011;26812;42.662;23.352;2022-11-20T06:33:37;3.42;;;1.45;;
41061;SDS011;26812;42.662;23.352;2022-11-20T06:36:02;2.30;;;1.40;;
41061;SDS011;26812;42.662;23.352;2022-11-20T06:38:29;3.58;;;1.38;;
41061;SDS011;26812;42.662;23.352;2022-11-20T06:40:54;4.18;;;1.38;;
41061;SDS011;26812;42.662;23.352;2022-11-20T06:43:20;5.88;;;1.13;;
41061;SDS011;26812;42.662;23.352;2022-11-20T06:45:46;2.55;;;1.70;;
41061;SDS011;26812;42.662;23.352;2022-11-20T06:48:17;1.30;;;1.20;;
41061;SDS011;26812;42.662;23.352;2022-11-20T06:50:42;2.65;;;1.30;;
41061;SDS011;26812;42.662;23.352;2022-11-20T06:53:07;4.82;;;1.75;;
41061;SDS011;26812;42.662;23.352;2022-11-20T06:55:33;4.15;;;0.98;;
41061;SDS011;26812;42.662;23.352;2022-11-20T06:57:58;1.45;;;1.30;;
41061;SDS011;26812;42.662;23.352;2022-11-20T07:00:24;1.88;;;1.23;;
41061;SDS011;26812;42.662;23.352;2022-11-20T07:02:49;2.58;;;1.30;;
41061;SDS011;26812;42.662;23.352;2022-11-20T07:05:15;4.80;;;1.40;;
41061;SDS011;26812;42.662;23.352;2022-11-20T07:07:42;3.33;;;1.60;;
41061;SDS011;26812;42.662;23.352;2022-11-20T07:10:07;1.38;;;1.13;;
41061;SDS011;26812;42.662;23.352;2022-11-20T07:12:33;2.70;;;0.90;;
41061;SDS011;26812;42.662;23.352;2022-11-20T07:14:59;2.05;;;1.27;;
41061;SDS011;26812;42.662;23.352;2022-11-20T07:17:24;1.10;;;1.00;;
41061;SDS011;26812;42.662;23.352;2022-11-20T07:19:50;1.13;;;1.00;;
41061;SDS011;26812;42.662;23.352;2022-11-20T07:22:16;2.05;;;1.30;;
41061;SDS011;26812;42.662;23.352;2022-11-20T07:24:41;2.95;;;1.10;;
41061;SDS011;26812;42.662;23.352;2022-11-20T07:27:07;1.70;;;1.10;;
41061;SDS011;26812;42.662;23.352;2022-11-20T07:29:32;1.67;;;1.05;;
41061;SDS011;26812;42.662;23.352;2022-11-20T07:31:58;2.75;;;0.68;;
41061;SDS011;26812;42.662;23.352;2022-11-20T07:34:24;2.75;;;0.98;;
41061;SDS011;26812;42.662;23.352;2022-11-20T07:36:49;1.52;;;1.10;;
41061;SDS011;26812;42.662;23.352;2022-11-20T07:39:15;2.33;;;1.60;;
41061;SDS011;26812;42.662;23.352;2022-11-20T07:41:40;3.33;;;1.20;;
41061;SDS011;26812;42.662;23.352;2022-11-20T07:44:06;2.85;;;1.40;;
41061;SDS011;26812;42.662;23.352;2022-11-20T07:46:31;4.72;;;1.30;;
41061;SDS011;26812;42.662;23.352;2022-11-20T07:48:57;1.20;;;1.00;;
41061;SDS011;26812;42.662;23.352;2022-11-20T07:51:22;2.28;;;1.08;;
41061;SDS011;26812;42.662;23.352;2022-11-20T07:53:50;1.80;;;1.30;;
41061;SDS011;26812;42.662;23.352;2022-11-20T07:56:16;2.85;;;1.30;;
41061;SDS011;26812;42.662;23.352;2022-11-20T07:58:41;2.60;;;1.30;;
41061;SDS011;26812;42.662;23.352;2022-11-20T08:01:07;4.38;;;1.80;;
41061;SDS011;26812;42.662;23.352;2022-11-20T08:03:33;3.30;;;2.30;;
41061;SDS011;26812;42.662;23.352;2022-11-20T08:05:59;9.35;;;5.45;;
41061;SDS011;26812;42.662;23.352;2022-11-20T08:08:28;1.63;;;1.52;;
41061;SDS011;26812;42.662;23.352;2022-11-20T08:10:54;3.50;;;1.50;;
41061;SDS011;26812;42.662;23.352;2022-11-20T08:13:41;7.53;;;1.88;;
41061;SDS011;26812;42.662;23.352;2022-11-20T08:16:25;1.50;;;1.40;;
41061;SDS011;26812;42.662;23.352;2022-11-20T08:18:50;2.28;;;2.08;;
41061;SDS011;26812;42.662;23.352;2022-11-20T08:21:16;4.35;;;1.50;;
41061;SDS011;26812;42.662;23.352;2022-11-20T08:23:41;2.63;;;1.40;;
41061;SDS011;26812;42.662;23.352;2022-11-20T08:26:07;1.67;;;1.13;;
41061;SDS011;26812;42.662;23.352;2022-11-20T08:28:32;2.90;;;1.30;;
41061;SDS011;26812;42.662;23.352;2022-11-20T08:31:01;5.10;;;1.13;;
41061;SDS011;26812;42.662;23.352;2022-11-20T08:33:27;5.32;;;1.40;;
41061;SDS011;26812;42.662;23.352;2022-11-20T08:35:53;2.05;;;1.10;;
41061;SDS011;26812;42.662;23.352;2022-11-20T08:38:18;2.80;;;0.85;;
41061;SDS011;26812;42.662;23.352;2022-11-20T08:40:44;3.20;;;1.05;;
41061;SDS011;26812;42.662;23.352;2022-11-20T08:43:29;1.65;;;1.50;;
41061;SDS011;26812;42.662;23.352;2022-11-20T08:45:56;3.28;;;1.80;;
41061;SDS011;26812;42.662;23.352;2022-11-20T08:48:22;3.75;;;2.72;;
41061;SDS011;26812;42.662;23.352;2022-11-20T08:50:47;2.25;;;1.67;;
41061;SDS011;26812;42.662;23.352;2022-11-20T08:53:13;5.70;;;2.35;;
41061;SDS011;26812;42.662;23.352;2022-11-20T08:55:38;5.35;;;1.40;;
41061;SDS011;26812;42.662;23.352;2022-11-20T08:58:04;2.97;;;1.10;;
41061;SDS011;26812;42.662;23.352;2022-11-20T09:00:33;2.40;;;2.20;;
41061;SDS011;26812;42.662;23.352;2022-11-20T09:02:59;4.82;;;1.30;;
41061;SDS011;26812;42.662;23.352;2022-11-20T09:05:26;2.88;;;1.00;;
41061;SDS011;26812;42.662;23.352;2022-11-20T09:07:51;2.83;;;1.40;;
41061;SDS011;26812;42.662;23.352;2022-11-20T09:10:17;5.40;;;1.70;;
41061;SDS011;26812;42.662;23.352;2022-11-20T09:12:42;3.13;;;1.77;;
41061;SDS011;26812;42.662;23.352;2022-11-20T09:15:08;4.03;;;1.90;;
41061;SDS011;26812;42.662;23.352;2022-11-20T09:17:33;2.00;;;1.80;;
41061;SDS011;26812;42.662;23.352;2022-11-20T09:19:59;5.90;;;3.22;;
41061;SDS011;26812;42.662;23.352;2022-11-20T09:22:24;3.92;;;1.83;;
41061;SDS011;26812;42.662;23.352;2022-11-20T09:24:50;4.28;;;2.55;;
41061;SDS011;26812;42.662;23.352;2022-11-20T09:27:15;4.05;;;2.75;;
41061;SDS011;26812;42.662;23.352;2022-11-20T09:29:46;2.08;;;0.88;;
41061;SDS011;26812;42.662;23.352;2022-11-20T09:32:11;2.03;;;1.60;;
41061;SDS011;26812;42.662;23.352;2022-11-20T09:34:37;1.75;;;1.15;;
41061;SDS011;26812;42.662;23.352;2022-11-20T09:37:02;1.48;;;1.27;;
41061;SDS011;26812;42.662;23.352;2022-11-20T09:39:28;3.05;;;1.42;;
41061;SDS011;26812;42.662;23.352;2022-11-20T09:50:45;1.27;;;1.17;;
41061;SDS011;26812;42.662;23.352;2022-11-20T09:56:03;4.38;;;1.98;;
41061;SDS011;26812;42.662;23.352;2022-11-20T10:01:11;3.60;;;1.95;;
41061;SDS011;26812;42.662;23.352;2022-11-20T10:06:33;2.55;;;1.80;;
41061;SDS011;26812;42.662;23.352;2022-11-20T10:14:29;4.65;;;1.90;;
41061;SDS011;26812;42.662;23.352;2022-11-20T10:22:56;1.75;;;1.50;;
41061;SDS011;26812;42.662;23.352;2022-11-20T10:25:38;4.70;;;2.92;;
41061;SDS011;26812;42.662;23.352;2022-11-20T10:28:17;4.88;;;3.47;;
41061;SDS011;26812;42.662;23.352;2022-11-20T10:30:46;6.47;;;3.13;;
41061;SDS011;26812;42.662;23.352;2022-11-20T10:33:22;5.68;;;3.58;;
41061;SDS011;26812;42.662;23.352;2022-11-20T10:38:43;7.72;;;3.58;;
41061;SDS011;26812;42.662;23.352;2022-11-20T10:41:19;7.13;;;3.00;;
41061;SDS011;26812;42.662;23.352;2022-11-20T10:46:32;8.48;;;3.30;;
41061;SDS011;26812;42.662;23.352;2022-11-20T10:49:04;8.68;;;3.92;;
41061;SDS011;26812;42.662;23.352;2022-11-20T10:51:52;5.70;;;3.70;;
41061;SDS011;26812;42.662;23.352;2022-11-20T10:54:39;4.05;;;2.92;;
41061;SDS011;26812;42.662;23.352;2022-11-20T11:00:04;5.53;;;3.17;;
41061;SDS011;26812;42.662;23.352;2022-11-20T11:04:58;5.75;;;3.55;;
41061;SDS011;26812;42.662;23.352;2022-11-20T11:07:38;6.68;;;4.32;;
41061;SDS011;26812;42.662;23.352;2022-11-20T11:10:18;7.45;;;3.83;;
41061;SDS011;26812;42.662;23.352;2022-11-20T11:12:46;5.43;;;3.60;;
41061;SDS011;26812;42.662;23.352;2022-11-20T11:18:03;9.13;;;4.15;;
41061;SDS011;26812;42.662;23.352;2022-11-20T11:20:28;1.60;;;1.40;;
41061;SDS011;26812;42.662;23.352;2022-11-20T11:22:58;1.65;;;1.05;;
41061;SDS011;26812;42.662;23.352;2022-11-20T11:25:26;2.10;;;1.40;;
41061;SDS011;26812;42.662;23.352;2022-11-20T11:28:01;1.00;;;1.00;;
41061;SDS011;26812;42.662;23.352;2022-11-20T11:30:27;1.60;;;1.50;;
41061;SDS011;26812;42.662;23.352;2022-11-20T11:35:52;4.00;;;1.25;;
41061;SDS011;26812;42.662;23.352;2022-11-20T11:38:43;2.28;;;1.10;;
41061;SDS011;26812;42.662;23.352;2022-11-20T11:41:13;1.02;;;0.98;;
41061;SDS011;26812;42.662;23.352;2022-11-20T11:43:52;1.15;;;0.60;;
41061;SDS011;26812;42.662;23.352;2022-11-20T11:46:38;1.58;;;0.60;;
41061;SDS011;26812;42.662;23.352;2022-11-20T11:51:52;0.70;;;0.70;;
41061;SDS011;26812;42.662;23.352;2022-11-20T11:54:35;2.05;;;0.80;;
41061;SDS011;26812;42.662;23.352;2022-11-20T11:57:49;3.40;;;0.80;;
41061;SDS011;26812;42.662;23.352;2022-11-20T12:00:14;2.92;;;1.05;;
41061;SDS011;26812;42.662;23.352;2022-11-20T12:05:23;1.58;;;1.15;;
41061;SDS011;26812;42.662;23.352;2022-11-20T12:10:50;6.15;;;1.35;;
41061;SDS011;26812;42.662;23.352;2022-11-20T12:16:00;1.25;;;0.90;;
41061;SDS011;26812;42.662;23.352;2022-11-20T12:18:26;1.48;;;0.68;;
41061;SDS011;26812;42.662;23.352;2022-11-20T12:23:53;0.88;;;0.70;;
41061;SDS011;26812;42.662;23.352;2022-11-20T12:28:59;4.25;;;0.63;;
41061;SDS011;26812;42.662;23.352;2022-11-20T12:36:45;0.45;;;0.45;;
41061;SDS011;26812;42.662;23.352;2022-11-20T12:39:24;0.80;;;0.70;;
41061;SDS011;26812;42.662;23.352;2022-11-20T13:01:32;1.48;;;1.00;;
41061;SDS011;26812;42.662;23.352;2022-11-20T13:06:59;5.22;;;1.42;;
41061;SDS011;26812;42.662;23.352;2022-11-20T13:09:27;3.67;;;1.55;;
41061;SDS011;26812;42.662;23.352;2022-11-20T13:12:06;5.32;;;1.88;;
41061;SDS011;26812;42.662;23.352;2022-11-20T13:17:19;6.55;;;2.50;;
41061;SDS011;26812;42.662;23.352;2022-11-20T13:19:53;5.35;;;1.90;;
41061;SDS011;26812;42.662;23.352;2022-11-20T13:22:26;5.57;;;1.70;;
41061;SDS011;26812;42.662;23.352;2022-11-20T13:25:09;3.58;;;1.90;;
41061;SDS011;26812;42.662;23.352;2022-11-20T13:27:35;3.22;;;1.65;;
41061;SDS011;26812;42.662;23.352;2022-11-20T13:30:14;2.72;;;1.88;;
41061;SDS011;26812;42.662;23.352;2022-11-20T13:32:49;3.05;;;1.73;;
41061;SDS011;26812;42.662;23.352;2022-11-20T13:40:26;2.47;;;1.70;;
41061;SDS011;26812;42.662;23.352;2022-11-20T13:45:26;5.28;;;2.13;;
41061;SDS011;26812;42.662;23.352;2022-11-20T13:47:53;3.88;;;2.10;;
41061;SDS011;26812;42.662;23.352;2022-11-20T13:50:21;5.43;;;2.97;;
41061;SDS011;26812;42.662;23.352;2022-11-20T14:01:23;4.95;;;2.72;;
41061;SDS011;26812;42.662;23.352;2022-11-20T14:03:51;7.03;;;2.25;;
41061;SDS011;26812;42.662;23.352;2022-11-20T14:06:40;5.45;;;2.30;;
41061;SDS011;26812;42.662;23.352;2022-11-20T14:09:24;3.53;;;2.33;;
41061;SDS011;26812;42.662;23.352;2022-11-20T14:11:52;7.55;;;3.08;;
41061;SDS011;26812;42.662;23.352;2022-11-20T14:14:19;5.32;;;2.45;;
41061;SDS011;26812;42.662;23.352;2022-11-20T14:16:46;3.42;;;1.95;;
41061;SDS011;26812;42.662;23.352;2022-11-20T14:21:44;4.88;;;2.80;;
41061;SDS011;26812;42.662;23.352;2022-11-20T14:24:11;4.47;;;2.25;;
41061;SDS011;26812;42.662;23.352;2022-11-20T14:26:38;3.92;;;2.40;;
41061;SDS011;26812;42.662;23.352;2022-11-20T14:29:17;6.28;;;2.85;;
41061;SDS011;26812;42.662;23.352;2022-11-20T14:31:45;7.07;;;2.60;;
41061;SDS011;26812;42.662;23.352;2022-11-20T14:34:16;3.15;;;2.70;;
41061;SDS011;26812;42.662;23.352;2022-11-20T14:36:44;8.68;;;2.97;;
41061;SDS011;26812;42.662;23.352;2022-11-20T14:39:56;3.88;;;3.05;;
41061;SDS011;26812;42.662;23.352;2022-11-20T14:42:00;7.05;;;3.78;;
41061;SDS011;26812;42.662;23.352;2022-11-20T14:44:32;6.78;;;3.83;;
41061;SDS011;26812;42.662;23.352;2022-11-20T14:47:00;5.22;;;3.83;;
41061;SDS011;26812;42.662;23.352;2022-11-20T14:49:29;7.95;;;3.38;;
41061;SDS011;26812;42.662;23.352;2022-11-20T14:52:00;8.00;;;3.22;;
41061;SDS011;26812;42.662;23.352;2022-11-20T14:54:27;6.85;;;3.33;;
41061;SDS011;26812;42.662;23.352;2022-11-20T14:56:54;5.53;;;3.53;;
41061;SDS011;26812;42.662;23.352;2022-11-20T14:59:24;5.55;;;3.45;;
41061;SDS011;26812;42.662;23.352;2022-11-20T15:02:01;4.70;;;3.38;;
41061;SDS011;26812;42.662;23.352;2022-11-20T15:04:29;5.25;;;3.92;;
41061;SDS011;26812;42.662;23.352;2022-11-20T15:06:55;8.63;;;3.72;;
41061;SDS011;26812;42.662;23.352;2022-11-20T15:09:22;6.93;;;2.97;;
41061;SDS011;26812;42.662;23.352;2022-11-20T15:11:58;3.85;;;3.45;;
41061;SDS011;26812;42.662;23.352;2022-11-20T15:14:27;6.20;;;3.35;;
41061;SDS011;26812;42.662;23.352;2022-11-20T15:16:53;3.22;;;2.25;;
41061;SDS011;26812;42.662;23.352;2022-11-20T15:19:23;4.90;;;3.00;;
41061;SDS011;26812;42.662;23.352;2022-11-20T15:21:50;3.83;;;2.63;;
41061;SDS011;26812;42.662;23.352;2022-11-20T15:24:16;6.32;;;2.60;;
41061;SDS011;26812;42.662;23.352;2022-11-20T15:26:42;4.60;;;2.67;;
41061;SDS011;26812;42.662;23.352;2022-11-20T15:29:09;6.88;;;2.30;;
41061;SDS011;26812;42.662;23.352;2022-11-20T15:31:36;3.17;;;1.83;;
41061;SDS011;26812;42.662;23.352;2022-11-20T15:34:14;4.88;;;2.08;;
41061;SDS011;26812;42.662;23.352;2022-11-20T15:36:40;1.95;;;1.83;;
41061;SDS011;26812;42.662;23.352;2022-11-20T15:39:07;2.92;;;2.17;;
41061;SDS011;26812;42.662;23.352;2022-11-20T15:41:36;5.15;;;2.88;;
41061;SDS011;26812;42.662;23.352;2022-11-20T15:44:02;7.03;;;2.58;;
41061;SDS011;26812;42.662;23.352;2022-11-20T15:46:30;4.50;;;2.30;;
41061;SDS011;26812;42.662;23.352;2022-11-20T15:49:03;2.50;;;2.20;;
41061;SDS011;26812;42.662;23.352;2022-11-20T15:51:33;4.15;;;2.65;;
41061;SDS011;26812;42.662;23.352;2022-11-20T15:54:00;2.40;;;1.65;;
41061;SDS011;26812;42.662;23.352;2022-11-20T15:56:27;5.15;;;1.88;;
41061;SDS011;26812;42.662;23.352;2022-11-20T15:58:52;2.97;;;1.73;;
41061;SDS011;26812;42.662;23.352;2022-11-20T16:01:18;1.60;;;1.50;;
41061;SDS011;26812;42.662;23.352;2022-11-20T16:03:46;2.97;;;2.10;;
41061;SDS011;26812;42.662;23.352;2022-11-20T16:06:12;3.38;;;2.53;;
41061;SDS011;26812;42.662;23.352;2022-11-20T16:08:37;2.42;;;2.22;;
41061;SDS011;26812;42.662;23.352;2022-11-20T16:11:03;2.22;;;1.77;;
41061;SDS011;26812;42.662;23.352;2022-11-20T16:13:30;3.88;;;2.10;;
41061;SDS011;26812;42.662;23.352;2022-11-20T16:19:03;3.97;;;1.90;;
41061;SDS011;26812;42.662;23.352;2022-11-20T16:21:29;2.38;;;1.70;;
41061;SDS011;26812;42.662;23.352;2022-11-20T16:24:01;3.50;;;1.80;;
41061;SDS011;26812;42.662;23.352;2022-11-20T16:26:28;4.30;;;1.95;;
41061;SDS011;26812;42.662;23.352;2022-11-20T16:28:54;2.55;;;1.98;;
41061;SDS011;26812;42.662;23.352;2022-11-20T16:31:21;5.05;;;2.58;;
41061;SDS011;26812;42.662;23.352;2022-11-20T16:33:50;4.63;;;1.98;;
41061;SDS011;26812;42.662;23.352;2022-11-20T16:36:21;6.07;;;2.80;;
41061;SDS011;26812;42.662;23.352;2022-11-20T16:38:51;2.40;;;1.88;;
41061;SDS011;26812;42.662;23.352;2022-11-20T16:41:17;3.88;;;2.38;;
41061;SDS011;26812;42.662;23.352;2022-11-20T16:43:52;3.58;;;2.42;;
41061;SDS011;26812;42.662;23.352;2022-11-20T16:46:22;1.88;;;1.70;;
41061;SDS011;26812;42.662;23.352;2022-11-20T16:48:52;2.20;;;1.73;;